Quincy, Illinois
Current Conditions -  °F | °C
As of 9:17 AM on Saturday 22 Nov 2014 (Local Time) from KUIN Reporting Station
Overcast Overcast  
Wind Chill: 52°   Ceiling: 2200
Heat Index: 52°   Visibility: 8mi
Dew Point: 45°   Wind: 16mph
Humidity: 77%   Direction: 200°SSW
Pressure: 30"   Gusts: NA
Location:  39.94°N, 91.39°W
Report Text: KUIN 221517Z AUTO 20014KT 8SM BKN022 BKN035 OVC065 11/07 A3000 RMK AO2 T01110072
Loading
Personal Weather Stations






























Interactive Weather Map New forecast layout! Learn more

10-Day Weather Forecast

Advertisements
Track Severe Weather on mobile